Time;durP1;ratioP1;P1;durP2;ratioP2;P2;SDS_P1;SDS_P2;PMS_P1;PMS_P2;Temp;Humidity;BMP_temperature;BMP_pressure;BME280_temperature;BME280_humidity;BME280_pressure;Samples;Min_cycle;Max_cycle;Signal;HPM_P1;HPM_P2
2023/05/13 00:00:11;;;;;;;3.53;3.07;;;;;;;13.48;84.92;101946.59;5093632;28;20081;-84
2023/05/13 00:02:36;;;;;;;3.20;2.90;;;;;;;13.48;85.64;101946.59;5095035;28;20032;-84
2023/05/13 00:05:01;;;;;;;3.17;2.77;;;;;;;13.46;85.85;101945.75;5094382;28;20028;-84
2023/05/13 00:07:27;;;;;;;2.70;2.50;;;;;;;13.39;84.82;101938.00;5094278;28;20024;-84
2023/05/13 00:09:52;;;;;;;2.60;2.40;;;;;;;13.41;85.33;101951.84;5094639;28;20079;-84
2023/05/13 00:12:18;;;;;;;2.50;2.30;;;;;;;13.38;85.34;101949.28;5093725;28;20027;-84
2023/05/13 00:14:43;;;;;;;3.03;2.33;;;;;;;13.35;85.20;101935.38;5094592;28;20032;-84
2023/05/13 00:17:08;;;;;;;2.77;2.40;;;;;;;13.33;85.24;101940.59;5086740;28;20404;-84
2023/05/13 00:19:33;;;;;;;2.87;2.43;;;;;;;13.30;85.39;101940.63;5073777;28;20024;-84
2023/05/13 00:22:02;;;;;;;2.60;2.40;;;;;;;13.29;84.70;101938.91;5073824;28;20024;-84
2023/05/13 00:24:27;;;;;;;6.60;3.67;;;;;;;13.23;84.74;101934.59;5074549;28;20024;-83
2023/05/13 00:26:52;;;;;;;3.50;2.93;;;;;;;13.22;85.06;101939.84;5074361;28;20028;-84
2023/05/13 00:29:18;;;;;;;3.60;2.80;;;;;;;13.20;85.26;101936.38;5075729;28;20032;-84
2023/05/13 00:31:43;;;;;;;2.97;2.67;;;;;;;13.16;85.44;101932.09;5074736;28;20444;-83
2023/05/13 00:34:08;;;;;;;3.67;2.93;;;;;;;13.11;85.60;101934.75;5073176;28;20024;-84
2023/05/13 00:36:34;;;;;;;2.60;2.40;;;;;;;13.09;85.59;101939.94;5074053;28;20067;-84
2023/05/13 00:38:59;;;;;;;2.50;2.30;;;;;;;13.07;85.47;101931.28;5073564;28;20369;-84
2023/05/13 00:41:24;;;;;;;2.83;2.50;;;;;;;13.05;85.28;101930.44;5072747;28;20021;-84
2023/05/13 00:43:53;;;;;;;2.50;2.30;;;;;;;13.05;85.37;101940.88;5073569;28;20052;-84
2023/05/13 00:46:22;;;;;;;2.72;2.35;;;;;;;13.03;85.15;101944.34;5073461;28;20035;-83
2023/05/13 00:48:48;;;;;;;2.50;2.20;;;;;;;13.00;84.91;101940.03;5093074;28;20384;-83
2023/05/13 00:51:14;;;;;;;2.13;2.03;;;;;;;13.00;84.98;101944.38;5093679;28;20024;-83
2023/05/13 00:53:40;;;;;;;2.30;2.10;;;;;;;12.97;85.09;101937.44;5093796;28;20460;-84
2023/05/13 00:56:06;;;;;;;3.00;2.38;;;;;;;12.94;84.76;101943.53;5092643;28;20020;-84
2023/05/13 00:58:31;;;;;;;2.57;2.37;;;;;;;12.84;84.90;101928.84;5093413;28;20024;-84
2023/05/13 01:01:07;;;;;;;3.97;3.20;;;;;;;12.85;84.00;101937.53;5088911;28;20017;-85
2023/05/13 01:03:43;;;;;;;3.50;2.97;;;;;;;12.83;84.75;101940.16;5072559;28;20050;-84
2023/05/13 01:06:17;;;;;;;4.35;3.63;;;;;;;12.79;84.10;101947.13;5073005;28;20028;-83
2023/05/13 01:08:55;;;;;;;3.97;3.20;;;;;;;12.79;84.20;101948.84;5072575;28;20096;-84
2023/05/13 01:11:40;;;;;;;3.65;3.00;;;;;;;12.77;83.99;101945.41;5073122;28;20032;-84
2023/05/13 01:14:11;;;;;;;3.03;2.70;;;;;;;12.74;84.61;101941.06;5072783;28;20530;-84
2023/05/13 01:16:54;;;;;;;6.10;4.00;;;;;;;12.71;83.42;101935.03;5074563;28;20032;-84
2023/05/13 01:19:40;;;;;;;4.45;3.60;;;;;;;12.71;84.09;101941.13;5092973;28;20387;-84
2023/05/13 01:22:06;;;;;;;3.20;2.90;;;;;;;12.69;84.27;101944.56;5093144;28;20024;-84
2023/05/13 01:24:31;;;;;;;3.17;2.53;;;;;;;12.66;84.38;101940.25;5092439;28;20042;-84
2023/05/13 01:26:57;;;;;;;4.43;3.50;;;;;;;12.59;83.16;101939.44;5093053;28;20031;-84
2023/05/13 01:29:22;;;;;;;3.20;2.90;;;;;;;12.52;83.62;101927.34;5091458;28;20490;-84
2023/05/13 01:31:50;;;;;;;4.17;3.20;;;;;;;12.55;83.41;101929.94;5092054;28;20032;-84
2023/05/13 01:34:18;;;;;;;3.22;2.90;;;;;;;12.59;83.48;101947.25;5092448;28;20494;-84
2023/05/13 01:36:43;;;;;;;3.75;3.10;;;;;;;12.54;83.25;101940.34;5091707;28;20020;-83
2023/05/13 01:39:10;;;;;;;5.37;3.43;;;;;;;12.49;83.16;101938.66;5092279;28;20039;-84
2023/05/13 01:41:35;;;;;;;3.85;3.03;;;;;;;12.48;83.10;101939.50;5092986;28;20376;-83
2023/05/13 01:44:02;;;;;;;3.10;2.80;;;;;;;12.48;83.53;101941.25;5091711;28;20036;-83
2023/05/13 01:46:27;;;;;;;2.75;2.50;;;;;;;12.45;83.37;101946.44;5091667;28;20032;-83
2023/05/13 01:48:53;;;;;;;3.10;2.80;;;;;;;12.40;83.16;101943.88;5072823;28;20017;-84
2023/05/13 01:51:18;;;;;;;3.20;2.73;;;;;;;12.40;83.08;101950.84;5077650;28;20054;-83
2023/05/13 01:53:44;;;;;;;2.70;2.50;;;;;;;12.35;83.36;101945.66;5093059;28;20369;-83
2023/05/13 01:56:09;;;;;;;2.77;2.40;;;;;;;12.32;82.84;101948.25;5090899;28;20028;-83
2023/05/13 01:58:35;;;;;;;2.57;2.27;;;;;;;12.28;83.28;101949.13;5091968;28;20499;-83
2023/05/13 02:01:00;;;;;;;3.90;2.90;;;;;;;12.26;82.38;101938.75;5092272;28;20032;-83
2023/05/13 02:03:26;;;;;;;3.23;2.90;;;;;;;12.28;82.15;101946.53;5092995;28;20044;-83
2023/05/13 02:05:51;;;;;;;3.63;2.70;;;;;;;12.24;82.39;101948.28;5091921;28;20384;-83
2023/05/13 02:08:16;;;;;;;2.57;2.30;;;;;;;12.26;82.20;101950.91;5073894;28;20040;-83
2023/05/13 02:10:42;;;;;;;2.30;2.10;;;;;;;12.23;82.48;101950.91;5072266;28;20016;-84
2023/05/13 02:13:07;;;;;;;2.37;2.10;;;;;;;12.18;82.51;101943.97;5071464;28;20052;-83
2023/05/13 02:15:32;;;;;;;2.07;1.97;;;;;;;12.19;82.47;101956.13;5072775;28;20049;-83
2023/05/13 02:17:57;;;;;;;2.17;2.00;;;;;;;12.17;82.63;101951.81;5085426;28;20028;-83
2023/05/13 02:20:23;;;;;;;2.40;2.20;;;;;;;12.15;82.70;101950.94;5091675;28;20031;-83
2023/05/13 02:22:49;;;;;;;3.13;2.20;;;;;;;12.10;82.97;101953.56;5092811;28;20024;-83
2023/05/13 02:25:14;;;;;;;2.20;2.10;;;;;;;12.08;82.64;101955.31;5079647;28;20297;-83
2023/05/13 02:27:39;;;;;;;2.83;2.13;;;;;;;12.03;82.93;101955.31;5072862;28;20028;-83
2023/05/13 02:30:05;;;;;;;2.20;2.00;;;;;;;12.00;82.90;101952.72;5072001;28;20040;-84
2023/05/13 02:32:31;;;;;;;2.10;2.00;;;;;;;11.97;83.31;101950.13;5072698;28;20079;-83
2023/05/13 02:34:56;;;;;;;2.30;2.10;;;;;;;11.93;83.28;101950.13;5071898;28;20380;-83
2023/05/13 02:37:21;;;;;;;2.77;2.10;;;;;;;11.89;83.62;101952.75;5071766;28;20082;-83
2023/05/13 02:39:46;;;;;;;2.47;2.27;;;;;;;11.86;83.53;101951.88;5072312;28;20027;-83
2023/05/13 02:42:12;;;;;;;2.77;2.30;;;;;;;11.82;83.99;101948.41;5071994;28;20473;-83
2023/05/13 02:44:37;;;;;;;2.37;2.17;;;;;;;11.80;83.66;101951.88;5074009;28;20040;-83
2023/05/13 02:47:03;;;;;;;2.60;2.40;;;;;;;11.73;83.74;101943.22;5080301;28;20031;-83
2023/05/13 02:49:28;;;;;;;2.57;2.37;;;;;;;11.72;84.10;101944.97;5096276;28;20112;-84
2023/05/13 02:51:53;;;;;;;2.50;2.30;;;;;;;11.68;84.09;101945.00;5096340;28;20077;-83
2023/05/13 02:54:18;;;;;;;2.23;2.10;;;;;;;11.63;84.30;101945.00;5095020;28;20152;-83
2023/05/13 02:56:44;;;;;;;2.50;2.30;;;;;;;11.56;84.27;101938.94;5094049;28;20020;-84
2023/05/13 02:59:10;;;;;;;2.57;2.37;;;;;;;11.54;84.36;101934.63;5096014;28;20020;-83
2023/05/13 03:01:37;;;;;;;2.37;2.17;;;;;;;11.53;84.83;101941.53;5095330;28;20048;-83
2023/05/13 03:04:03;;;;;;;2.50;2.30;;;;;;;11.47;84.61;101936.38;5095858;28;20027;-83
2023/05/13 03:06:28;;;;;;;2.40;2.20;;;;;;;11.44;84.61;101938.97;5096177;28;20032;-83
2023/05/13 03:08:54;;;;;;;2.80;2.50;;;;;;;11.43;84.73;101940.69;5095490;28;20495;-83
2023/05/13 03:11:19;;;;;;;2.23;2.03;;;;;;;11.38;84.82;101936.34;5096576;28;20122;-83
2023/05/13 03:13:45;;;;;;;2.27;2.10;;;;;;;11.35;84.77;101933.78;5098066;28;20020;-84
2023/05/13 03:16:10;;;;;;;2.50;2.30;;;;;;;11.34;84.83;101935.50;5095150;28;20024;-83
2023/05/13 03:18:35;;;;;;;2.27;2.07;;;;;;;11.31;84.91;101938.13;5076649;28;20115;-83
2023/05/13 03:21:01;;;;;;;2.40;2.20;;;;;;;11.25;84.82;101935.50;5075021;28;20031;-83
2023/05/13 03:23:26;;;;;;;2.30;2.10;;;;;;;11.24;84.91;101938.97;5074436;28;20020;-83
2023/05/13 03:25:51;;;;;;;2.57;2.37;;;;;;;11.21;84.99;101942.44;5081309;28;20031;-84
2023/05/13 03:28:17;;;;;;;2.97;2.60;;;;;;;11.18;84.93;101945.03;5095261;28;20077;-83
2023/05/13 03:30:42;;;;;;;3.57;3.07;;;;;;;11.13;84.84;101941.59;5094580;28;20054;-83
2023/05/13 03:33:09;;;;;;;3.90;3.10;;;;;;;11.10;85.14;101939.84;5094896;28;20119;-83
2023/05/13 03:35:37;;;;;;;2.97;2.67;;;;;;;11.09;85.04;101945.91;5095847;28;20095;-83
2023/05/13 03:38:03;;;;;;;2.88;2.42;;;;;;;11.05;85.14;101944.19;5094224;28;20106;-83
2023/05/13 03:40:28;;;;;;;4.77;3.50;;;;;;;11.01;85.45;101947.63;5095064;28;20124;-83
2023/05/13 03:42:53;;;;;;;3.13;2.83;;;;;;;11.02;85.23;101945.91;5082499;28;20089;-83
2023/05/13 03:45:18;;;;;;;3.90;3.30;;;;;;;10.99;85.52;101948.50;5073566;28;20583;-83
2023/05/13 03:47:44;;;;;;;3.77;3.20;;;;;;;10.96;85.46;101942.44;5085918;28;20043;-83
2023/05/13 03:50:09;;;;;;;4.33;3.40;;;;;;;10.92;85.13;101947.63;5094002;28;20372;-82
2023/05/13 03:52:34;;;;;;;4.13;3.20;;;;;;;10.92;85.33;101952.81;5095196;28;20020;-84
2023/05/13 03:55:00;;;;;;;4.70;3.53;;;;;;;10.89;85.56;101955.41;5094262;28;20019;-83
2023/05/13 03:57:25;;;;;;;5.27;3.83;;;;;;;10.85;85.74;101957.16;5093614;28;20495;-83
2023/05/13 03:59:50;;;;;;;4.20;3.43;;;;;;;10.82;85.69;101959.72;5094610;28;20024;-83
2023/05/13 04:02:17;;;;;;;3.93;3.50;;;;;;;10.79;85.64;101952.81;5094666;28;20023;-84
2023/05/13 04:04:42;;;;;;;;;;;;;;;10.78;85.96;101953.66;5076371;28;20536;-83
2023/05/13 04:07:07;;;;;;;3.73;3.03;;;;;;;10.73;85.86;101952.81;5073865;28;19955;-83
2023/05/13 04:09:33;;;;;;;3.10;2.80;;;;;;;10.74;85.74;101951.06;5074289;28;20032;-83
2023/05/13 04:11:58;;;;;;;3.90;2.70;;;;;;;10.79;85.71;101951.97;5073109;28;20025;-83
2023/05/13 04:14:23;;;;;;;2.70;2.50;;;;;;;10.77;85.94;101951.94;5074170;28;20392;-83
2023/05/13 04:16:48;;;;;;;3.00;2.70;;;;;;;10.78;85.78;101963.22;5082001;28;20031;-83
2023/05/13 04:19:14;;;;;;;2.80;2.50;;;;;;;10.73;86.08;101955.41;5093198;28;20531;-83
2023/05/13 04:21:39;;;;;;;2.63;2.43;;;;;;;10.72;85.69;101952.78;5094086;28;20024;-83
2023/05/13 04:24:05;;;;;;;2.43;2.23;;;;;;;10.74;86.49;101964.94;5094025;28;20099;-83
2023/05/13 04:26:33;;;;;;;3.28;2.85;;;;;;;10.74;85.87;101961.47;5093303;28;20395;-83
2023/05/13 04:28:58;;;;;;;3.00;2.70;;;;;;;10.73;86.00;101963.19;5093833;28;20573;-83
2023/05/13 04:31:24;;;;;;;2.80;2.50;;;;;;;10.72;86.26;101964.06;5094317;28;20045;-83
2023/05/13 04:33:52;;;;;;;5.33;3.80;;;;;;;10.72;86.89;101963.19;5093366;28;20012;-83
2023/05/13 04:36:17;;;;;;;8.18;5.13;;;;;;;10.61;86.88;101952.78;5093989;28;20031;-83
2023/05/13 04:38:43;;;;;;;6.80;4.27;;;;;;;10.70;86.66;101970.09;5094058;28;20426;-83
2023/05/13 04:41:10;;;;;;;5.47;4.07;;;;;;;10.70;86.44;101968.38;5092832;28;20024;-83
2023/05/13 04:43:36;;;;;;;8.20;5.20;;;;;;;10.71;86.80;101975.31;5093684;28;20139;-83
2023/05/13 04:46:01;;;;;;;8.53;5.20;;;;;;;10.72;87.64;101973.56;5092329;28;20114;-84
2023/05/13 04:48:29;;;;;;;8.00;4.77;;;;;;;10.73;87.54;101975.28;5072558;28;20473;-83
2023/05/13 04:50:55;;;;;;;8.55;4.90;;;;;;;10.69;87.21;101966.63;5073822;28;20031;-84
2023/05/13 04:53:20;;;;;;;8.87;5.80;;;;;;;10.71;87.34;101964.91;5072992;28;20054;-84
2023/05/13 04:55:48;;;;;;;9.00;6.00;;;;;;;10.72;87.37;101977.03;5072483;28;20024;-83
2023/05/13 04:58:13;;;;;;;9.90;6.55;;;;;;;10.70;88.27;101972.69;5072778;28;20048;-83
2023/05/13 05:00:38;;;;;;;9.40;6.30;;;;;;;10.72;88.20;101977.03;5072324;28;20063;-83
2023/05/13 05:03:04;;;;;;;12.37;6.97;;;;;;;10.73;88.24;101981.38;5072981;28;20032;-83
2023/05/13 05:05:29;;;;;;;11.40;6.80;;;;;;;10.77;87.90;101977.06;5073461;28;20024;-83
2023/05/13 05:07:54;;;;;;;15.13;8.30;;;;;;;10.70;88.69;101972.69;5071531;28;20029;-84
2023/05/13 05:10:20;;;;;;;13.20;7.47;;;;;;;10.78;88.84;101979.63;5075215;28;20025;-83
2023/05/13 05:12:45;;;;;;;11.53;7.23;;;;;;;10.81;88.45;101982.25;5093416;28;20028;-83
2023/05/13 05:15:14;;;;;;;9.63;6.73;;;;;;;10.85;88.39;101987.47;5092407;28;20028;-83
2023/05/13 05:17:41;;;;;;;11.48;6.80;;;;;;;10.87;87.63;101991.78;5078081;28;20508;-83
2023/05/13 05:20:06;;;;;;;;;;;;;;;10.91;88.24;101992.66;5073090;28;20118;-83
2023/05/13 05:22:34;;;;;;;12.07;7.53;;;;;;;10.90;88.53;101991.78;5072269;28;19912;-84
2023/05/13 05:24:59;;;;;;;14.68;8.68;;;;;;;10.97;87.70;101996.13;5072695;28;20028;-83
2023/05/13 05:27:24;;;;;;;15.90;9.50;;;;;;;11.00;88.66;101992.66;5072894;28;20551;-83
2023/05/13 05:29:49;;;;;;;13.13;8.10;;;;;;;11.04;88.13;101996.13;5072348;28;20020;-84
2023/05/13 05:32:15;;;;;;;13.00;7.60;;;;;;;11.09;88.29;102003.06;5072532;28;20020;-83
2023/05/13 05:34:40;;;;;;;11.90;7.00;;;;;;;11.14;88.45;102005.69;5072684;28;20029;-83
2023/05/13 05:37:08;;;;;;;9.97;5.93;;;;;;;11.18;88.26;101996.16;5072704;28;20016;-82
2023/05/13 05:39:34;;;;;;;11.25;6.95;;;;;;;11.22;88.51;102001.34;5072500;28;20071;-85
2023/05/13 05:41:59;;;;;;;13.33;8.07;;;;;;;11.28;87.69;102003.09;5072252;28;20186;-82
2023/05/13 05:44:25;;;;;;;14.63;7.93;;;;;;;11.28;87.26;102003.94;5071459;28;20525;-83
2023/05/13 05:46:51;;;;;;;13.13;8.13;;;;;;;11.29;87.26;102004.81;5072385;28;20027;-82
2023/05/13 05:49:19;;;;;;;14.93;8.25;;;;;;;11.35;87.49;102014.34;5072381;28;20029;-82
2023/05/13 05:51:44;;;;;;;13.63;7.63;;;;;;;11.38;87.86;102012.63;5071905;28;20017;-83
2023/05/13 05:54:10;;;;;;;12.80;7.27;;;;;;;11.41;87.97;102015.22;5072331;28;20495;-82
2023/05/13 05:56:35;;;;;;;11.37;6.83;;;;;;;11.50;87.63;102016.09;5072475;28;20021;-82
2023/05/13 05:59:00;;;;;;;10.47;6.37;;;;;;;11.58;87.96;102014.34;5071355;28;20457;-83
2023/05/13 06:01:33;;;;;;;11.17;6.73;;;;;;;11.66;87.50;102019.53;5072454;28;20016;-82
2023/05/13 06:03:58;;;;;;;8.55;6.05;;;;;;;11.72;87.42;102009.13;5071253;28;20480;-82
2023/05/13 06:06:24;;;;;;;10.67;5.80;;;;;;;11.82;87.39;102020.38;5079022;28;20028;-83
2023/05/13 06:08:49;;;;;;;8.80;6.03;;;;;;;11.87;87.42;102021.25;5092647;28;20047;-83
2023/05/13 06:11:15;;;;;;;12.77;7.30;;;;;;;11.93;86.54;102022.97;5091444;28;20025;-82
2023/05/13 06:13:40;;;;;;;13.70;8.10;;;;;;;11.96;85.85;102017.75;5092624;28;20103;-83
2023/05/13 06:16:05;;;;;;;14.07;7.97;;;;;;;12.02;85.38;102020.38;5092258;28;20426;-82
2023/05/13 06:18:31;;;;;;;11.73;7.23;;;;;;;11.99;85.83;102015.19;5092463;28;20056;-83
2023/05/13 06:20:56;;;;;;;12.90;7.73;;;;;;;12.07;86.04;102025.56;5096390;28;20432;-83
2023/05/13 06:23:21;;;;;;;15.43;9.43;;;;;;;12.16;85.60;102028.16;5095977;28;20038;-82
2023/05/13 06:25:46;;;;;;;13.97;8.77;;;;;;;12.24;85.90;102028.97;5095622;28;20028;-82
2023/05/13 06:28:12;;;;;;;15.13;9.13;;;;;;;12.35;83.76;102027.22;5096456;28;20084;-82
2023/05/13 06:30:37;;;;;;;14.23;8.80;;;;;;;12.32;84.67;102032.44;5096161;28;20027;-85
2023/05/13 06:33:03;;;;;;;12.97;7.57;;;;;;;12.56;86.38;102027.13;5096188;28;20047;-85
2023/05/13 06:35:28;;;;;;;12.93;7.80;;;;;;;13.48;84.79;102028.28;5096513;28;20020;-84
2023/05/13 06:37:53;;;;;;;11.57;6.93;;;;;;;14.29;82.65;102024.88;5089040;28;20476;-84
2023/05/13 06:40:19;;;;;;;10.73;6.80;;;;;;;14.88;80.97;102027.63;5094521;28;20036;-84
2023/05/13 06:42:44;;;;;;;8.57;5.70;;;;;;;14.73;78.18;102033.06;5096188;28;20040;-84
2023/05/13 06:45:10;;;;;;;9.40;6.17;;;;;;;14.33;79.03;102035.25;5095909;28;20517;-84
2023/05/13 06:47:35;;;;;;;11.80;7.47;;;;;;;13.96;77.50;102038.28;5094847;28;20039;-84
2023/05/13 06:50:02;;;;;;;12.23;7.60;;;;;;;13.66;78.82;102042.91;5095676;28;20020;-84
2023/05/13 06:52:27;;;;;;;10.77;6.68;;;;;;;13.54;81.07;102036.09;5096092;28;20077;-84
2023/05/13 06:54:52;;;;;;;8.77;6.00;;;;;;;13.81;81.99;102041.06;5095170;28;20028;-84
2023/05/13 06:57:18;;;;;;;9.60;6.27;;;;;;;14.24;81.18;102038.00;5095735;28;20028;-84
2023/05/13 06:59:43;;;;;;;13.00;7.67;;;;;;;14.88;77.72;102043.28;5095478;28;20469;-84
2023/05/13 07:02:10;;;;;;;14.47;8.53;;;;;;;15.28;75.87;102040.09;5093877;28;20039;-85
2023/05/13 07:04:35;;;;;;;11.45;6.85;;;;;;;15.55;75.32;102035.28;5095497;28;20058;-84
2023/05/13 07:07:01;;;;;;;16.57;9.30;;;;;;;15.41;73.20;102042.50;5084557;28;20028;-94
2023/05/13 07:09:26;;;;;;;14.17;8.50;;;;;;;15.15;74.72;102041.16;5076851;28;20281;-93
2023/05/13 07:11:53;;;;;;;11.73;7.40;;;;;;;15.06;77.08;102039.56;5076925;28;20097;-84
2023/05/13 07:14:18;;;;;;;10.38;6.53;;;;;;;15.13;77.90;102041.22;5075384;28;20080;-91
2023/05/13 07:16:44;;;;;;;12.93;7.43;;;;;;;15.19;77.01;102042.88;5077939;28;20448;-90
2023/05/13 07:19:09;;;;;;;10.43;6.10;;;;;;;15.29;78.12;102035.72;5096338;28;20020;-91
2023/05/13 07:21:34;;;;;;;11.43;7.00;;;;;;;15.42;77.29;102032.03;5094790;28;20028;-85
2023/05/13 07:24:01;;;;;;;13.77;8.60;;;;;;;15.51;73.51;102030.13;5093998;28;20488;-87
2023/05/13 07:26:26;;;;;;;13.55;8.30;;;;;;;15.52;74.53;102034.47;5095334;28;20028;-88
2023/05/13 07:28:51;;;;;;;10.10;6.50;;;;;;;15.63;77.09;102032.53;5095961;28;20035;-91
2023/05/13 07:31:17;;;;;;;14.53;8.90;;;;;;;15.60;74.39;102041.31;5094805;28;20028;-90
2023/05/13 07:33:42;;;;;;;14.30;8.27;;;;;;;15.50;73.96;102034.50;5096106;28;20024;-90
2023/05/13 07:36:07;;;;;;;10.60;6.37;;;;;;;15.62;76.87;102035.19;5094432;28;20051;-90
2023/05/13 07:38:33;;;;;;;12.00;7.07;;;;;;;15.72;73.90;102032.38;5095257;28;20471;-90
2023/05/13 07:40:58;;;;;;;9.20;6.10;;;;;;;15.85;76.36;102037.41;5095616;28;20024;-88
2023/05/13 07:43:23;;;;;;;14.27;7.97;;;;;;;15.92;73.42;102033.81;5091315;28;20049;-92
2023/05/13 07:45:50;;;;;;;12.53;7.27;;;;;;;15.89;74.83;102039.09;5075624;28;20021;-90
2023/05/13 07:48:16;;;;;;;12.38;6.85;;;;;;;16.05;70.86;102043.13;5075016;28;20032;-89
2023/05/13 07:50:45;;;;;;;14.88;8.45;;;;;;;16.08;72.21;102042.25;5074801;28;20032;-90
2023/05/13 07:53:11;;;;;;;8.90;6.10;;;;;;;16.02;71.39;102024.00;5073625;28;20046;-90
2023/05/13 07:55:36;;;;;;;11.97;7.50;;;;;;;16.09;69.53;102030.88;5075180;28;20024;-92
2023/05/13 07:58:07;;;;;;;10.50;6.70;;;;;;;16.16;72.81;102042.06;5074450;28;20115;-89
2023/05/13 08:00:32;;;;;;;9.45;6.20;;;;;;;16.05;72.22;102035.28;5075600;28;20044;-89
2023/05/13 08:03:18;;;;;;;8.50;5.20;;;;;;;15.83;69.50;102026.94;5075136;28;20021;-89
2023/05/13 08:05:43;;;;;;;8.48;5.40;;;;;;;15.75;72.90;102028.84;5077728;28;20036;-96
2023/05/13 08:08:09;;;;;;;7.00;4.97;;;;;;;15.81;70.75;102039.19;5098198;28;20349;-94
2023/05/13 08:10:34;;;;;;;14.60;8.00;;;;;;;15.88;69.36;102047.84;5095637;28;20559;-93
2023/05/13 08:12:59;;;;;;;13.50;7.57;;;;;;;15.92;70.13;102044.28;5095772;28;20016;-95
2023/05/13 08:15:25;;;;;;;16.13;9.17;;;;;;;15.94;68.27;102045.09;5096359;28;20146;-88
2023/05/13 08:17:52;;;;;;;17.48;10.57;;;;;;;15.87;68.60;102051.34;5095346;28;20153;-92
2023/05/13 08:20:17;;;;;;;;;;;;;;;15.85;70.34;102054.00;5094850;28;20095;-95
2023/05/13 08:22:43;;;;;;;14.60;8.37;;;;;;;15.93;70.41;102058.22;5094446;28;20448;-86
2023/05/13 08:25:10;;;;;;;16.13;9.70;;;;;;;15.81;69.71;102052.28;5092766;28;20486;-86
2023/05/13 08:27:35;;;;;;;15.10;8.93;;;;;;;15.81;70.29;102049.66;5075830;28;20024;-85
2023/05/13 08:30:01;;;;;;;16.73;9.40;;;;;;;15.83;71.19;102049.63;5093386;28;20464;-86
2023/05/13 08:32:26;;;;;;;13.63;8.03;;;;;;;16.03;71.61;102046.69;5091563;28;20066;-87
2023/05/13 08:34:52;;;;;;;11.07;6.60;;;;;;;16.21;71.15;102050.72;5093667;28;20028;-86
2023/05/13 08:37:17;;;;;;;12.32;7.03;;;;;;;16.44;69.60;102045.00;5080135;28;20618;-86
2023/05/13 08:39:46;;;;;;;9.13;5.93;;;;;;;16.66;68.89;102053.28;5073052;28;20066;-87
2023/05/13 08:42:17;;;;;;;15.25;9.07;;;;;;;16.68;66.29;102042.75;5072913;28;20055;-86
2023/05/13 08:44:43;;;;;;;12.20;7.38;;;;;;;16.80;70.28;102045.09;5073566;28;20083;-87
2023/05/13 08:47:24;;;;;;;12.55;7.53;;;;;;;17.05;66.87;102054.22;5072619;28;20020;-86
2023/05/13 08:49:49;;;;;;;11.30;6.45;;;;;;;17.19;69.18;102053.88;5073583;28;20119;-85
2023/05/13 08:52:17;;;;;;;14.27;8.47;;;;;;;17.35;66.37;102051.75;5074402;28;20111;-85
2023/05/13 08:54:43;;;;;;;14.43;8.65;;;;;;;17.42;66.97;102054.19;5072882;28;20376;-88
2023/05/13 08:57:08;;;;;;;11.57;7.30;;;;;;;17.49;68.22;102046.16;5073148;28;20024;-87
2023/05/13 08:59:33;;;;;;;9.03;5.93;;;;;;;17.63;68.67;102045.78;5073037;28;20295;-87
2023/05/13 09:02:02;;;;;;;9.93;5.63;;;;;;;17.81;66.85;102047.06;5072745;28;20032;-87
2023/05/13 09:04:28;;;;;;;10.15;6.57;;;;;;;17.98;66.69;102044.03;5073194;28;20462;-87
2023/05/13 09:06:53;;;;;;;8.35;6.30;;;;;;;18.04;65.57;102036.84;5075343;28;20036;-88
2023/05/13 09:09:22;;;;;;;10.27;6.33;;;;;;;18.14;62.86;102047.09;5072616;28;20102;-87
2023/05/13 09:11:47;;;;;;;9.68;5.90;;;;;;;18.27;66.15;102037.13;5073081;28;20033;-89
2023/05/13 09:14:13;;;;;;;8.33;5.67;;;;;;;18.41;63.82;102040.19;5079033;28;20035;-89
2023/05/13 09:16:38;;;;;;;12.07;7.20;;;;;;;18.51;64.94;102031.16;5093273;28;20047;-88
2023/05/13 09:19:05;;;;;;;11.13;7.60;;;;;;;18.55;61.33;102031.91;5092768;28;20365;-87
2023/05/13 09:21:34;;;;;;;11.68;7.70;;;;;;;18.68;65.19;102041.16;5092072;28;20024;-87
2023/05/13 09:24:17;;;;;;;8.52;5.60;;;;;;;18.89;67.76;102024.75;5092690;28;20020;-86
2023/05/13 09:26:43;;;;;;;12.77;7.40;;;;;;;19.05;65.36;102030.41;5092868;28;20388;-87
2023/05/13 09:29:25;;;;;;;12.45;7.60;;;;;;;19.09;61.63;102030.25;5092426;28;20020;-87
2023/05/13 09:31:56;;;;;;;10.35;6.45;;;;;;;19.20;64.59;102026.41;5093205;28;20020;-87
2023/05/13 09:34:29;;;;;;;12.57;7.47;;;;;;;19.37;60.50;102033.75;5092753;28;20035;-86
2023/05/13 09:37:05;;;;;;;9.55;6.15;;;;;;;19.48;62.82;102028.13;5092316;28;20016;-87
2023/05/13 09:39:37;;;;;;;11.88;7.10;;;;;;;19.64;58.98;102021.44;5093539;28;20028;-87
2023/05/13 09:42:03;;;;;;;11.55;7.30;;;;;;;19.68;59.15;102027.47;5092161;28;20080;-86
2023/05/13 09:44:28;;;;;;;10.07;6.40;;;;;;;19.74;59.62;102022.84;5081714;28;20040;-87
2023/05/13 09:46:54;;;;;;;9.13;6.38;;;;;;;19.80;58.02;102024.41;5072739;28;20274;-86
2023/05/13 09:49:25;;;;;;;9.53;5.40;;;;;;;19.97;61.39;102018.56;5072399;28;20441;-87
2023/05/13 09:51:50;;;;;;;11.18;6.57;;;;;;;20.03;58.44;102014.84;5072447;28;20021;-86
2023/05/13 09:54:15;;;;;;;10.90;6.60;;;;;;;20.13;56.63;102018.84;5071638;28;20365;-89
2023/05/13 09:56:41;;;;;;;9.50;6.03;;;;;;;20.21;54.92;102019.41;5071825;28;20059;-87
2023/05/13 09:59:06;;;;;;;8.20;5.87;;;;;;;20.31;53.51;102014.66;5072148;28;20036;-87
2023/05/13 10:01:34;;;;;;;8.20;5.17;;;;;;;20.43;59.06;102023.88;5072950;28;20028;-87
2023/05/13 10:03:59;;;;;;;9.95;5.32;;;;;;;20.55;56.36;102016.41;5074738;28;20456;-87
2023/05/13 10:06:27;;;;;;;12.20;6.90;;;;;;;20.53;50.68;102013.84;5092686;28;20048;-86
2023/05/13 10:08:55;;;;;;;10.30;6.00;;;;;;;20.49;55.02;102006.97;5092877;28;20019;-87
2023/05/13 10:11:22;;;;;;;11.95;6.75;;;;;;;20.64;51.83;102016.03;5091682;28;20379;-87
2023/05/13 10:13:54;;;;;;;10.07;6.20;;;;;;;20.67;55.02;102010.66;5091052;28;20032;-87
2023/05/13 10:16:20;;;;;;;8.93;5.70;;;;;;;20.80;55.09;102011.94;5092624;28;20028;-87
2023/05/13 10:18:46;;;;;;;8.68;5.38;;;;;;;21.01;53.34;102004.06;5092066;28;20541;-88
2023/05/13 10:21:12;;;;;;;5.10;4.00;;;;;;;21.17;56.07;101998.16;5092820;28;20384;-91
2023/05/13 10:23:38;;;;;;;4.10;3.70;;;;;;;21.40;53.48;102002.44;5093355;28;20044;-91
2023/05/13 10:26:06;;;;;;;6.87;4.50;;;;;;;21.53;53.25;101994.84;5093062;28;20067;-89
2023/05/13 10:28:33;;;;;;;8.15;5.20;;;;;;;21.59;48.09;101995.47;5093443;28;20036;-90
2023/05/13 10:30:58;;;;;;;7.03;4.10;;;;;;;21.72;52.50;102000.22;5093357;28;20028;-90
2023/05/13 10:33:25;;;;;;;6.87;4.27;;;;;;;21.90;49.83;101993.25;5092614;28;20027;-90
2023/05/13 10:36:12;;;;;;;6.03;4.40;;;;;;;22.02;51.38;101998.00;5093425;28;20027;-91
2023/05/13 10:38:50;;;;;;;6.20;4.50;;;;;;;22.03;47.06;102002.34;5092477;28;20024;-89
2023/05/13 10:41:46;;;;;;;6.65;4.07;;;;;;;22.10;52.30;101999.44;5092434;28;20383;-90
2023/05/13 10:44:11;;;;;;;5.95;4.30;;;;;;;22.27;48.44;101985.41;5092272;28;20040;-86
2023/05/13 10:46:38;;;;;;;5.60;3.70;;;;;;;22.40;52.42;101985.72;5093418;28;20020;-90
2023/05/13 10:49:03;;;;;;;5.53;4.10;;;;;;;22.54;49.65;101991.22;5084567;28;20358;-91
2023/05/13 10:51:29;;;;;;;9.17;4.80;;;;;;;22.53;47.61;101992.16;5073412;28;20031;-90
2023/05/13 10:53:57;;;;;;;8.30;5.45;;;;;;;21.81;44.65;101983.97;5072315;28;20025;-88
2023/05/13 10:56:24;;;;;;;8.93;5.10;;;;;;;21.93;47.71;101976.41;5073049;28;20090;-91
2023/05/13 10:58:57;;;;;;;5.43;3.88;;;;;;;22.15;49.52;101986.88;5072866;28;20111;-91
2023/05/13 11:01:30;;;;;;;6.70;4.13;;;;;;;22.34;46.21;101976.28;5072655;28;20033;-91
2023/05/13 11:04:03;;;;;;;7.45;4.53;;;;;;;22.43;43.80;101981.16;5073449;28;20040;-91
2023/05/13 11:06:38;;;;;;;7.22;4.25;;;;;;;22.43;42.41;101982.94;5074866;28;20104;-91
2023/05/13 11:09:06;;;;;;;5.07;3.80;;;;;;;22.61;42.06;101981.22;5076240;28;20036;-90
2023/05/13 11:11:33;;;;;;;6.03;3.80;;;;;;;22.68;40.48;101972.91;5089862;28;20038;-90
2023/05/13 11:13:58;;;;;;;5.25;3.78;;;;;;;22.86;42.56;101975.56;5076170;28;20020;-90
2023/05/13 11:16:24;;;;;;;4.53;3.40;;;;;;;23.01;39.37;101975.75;5076690;28;20029;-91
2023/05/13 11:18:51;;;;;;;4.60;3.60;;;;;;;23.12;41.79;101966.34;5086914;28;20372;-90
2023/05/13 11:21:17;;;;;;;7.60;4.30;;;;;;;22.88;36.48;101971.06;5095436;28;20028;-87